createdAt,value
2018-07-16T00:03:56.871Z,101410.69
2018-07-16T00:08:59.005Z,101410.89
2018-07-16T00:14:01.123Z,101411.75
2018-07-16T00:19:03.287Z,101413.80
2018-07-16T00:24:05.432Z,101403.09
2018-07-16T00:29:07.577Z,101404.13
2018-07-16T00:34:09.815Z,101408.64
2018-07-16T00:39:12.332Z,101414.00
2018-07-16T00:44:14.565Z,101405.22
2018-07-16T00:49:16.978Z,101408.11
2018-07-16T00:54:19.148Z,101403.70
2018-07-16T00:59:21.293Z,101405.34
2018-07-16T01:04:23.496Z,101410.27
2018-07-16T01:09:25.667Z,101403.47
2018-07-16T01:14:27.836Z,101395.62
2018-07-16T01:19:30.003Z,101399.82
2018-07-16T01:24:32.162Z,101396.88
2018-07-16T01:29:34.327Z,101401.05
2018-07-16T01:34:36.476Z,101404.22
2018-07-16T01:39:38.670Z,101404.83
2018-07-16T01:44:40.848Z,101398.83
2018-07-16T01:49:43.005Z,101398.80
2018-07-16T01:54:45.166Z,101393.34
2018-07-16T01:59:47.336Z,101388.39
2018-07-16T02:04:49.486Z,101392.70
2018-07-16T02:09:51.659Z,101387.80
2018-07-16T02:14:53.803Z,101379.65
2018-07-16T02:19:56.146Z,101379.84
2018-07-16T02:24:58.298Z,101383.17
2018-07-16T02:30:00.639Z,101376.16
2018-07-16T02:35:02.835Z,101369.10
2018-07-16T02:40:05.044Z,101366.81
2018-07-16T02:45:07.243Z,101366.61
2018-07-16T02:50:09.424Z,101362.30
2018-07-16T02:55:11.597Z,101361.88
2018-07-16T03:00:13.783Z,101362.46
2018-07-16T03:05:17.216Z,101360.34
2018-07-16T03:10:19.433Z,101363.00
2018-07-16T03:15:21.601Z,101364.80
2018-07-16T03:20:23.738Z,101370.14
2018-07-16T03:25:25.903Z,101367.75
2018-07-16T03:30:28.036Z,101369.48
2018-07-16T03:35:30.230Z,101363.84
2018-07-16T03:40:32.445Z,101362.36
2018-07-16T03:45:34.580Z,101367.97
2018-07-16T03:50:36.746Z,101366.78
2018-07-16T03:55:38.895Z,101368.48
2018-07-16T04:00:41.051Z,101371.88
2018-07-16T04:05:43.225Z,101370.84
2018-07-16T04:10:45.407Z,101374.34
2018-07-16T04:15:47.580Z,101368.08
2018-07-16T04:20:50.013Z,101369.52
2018-07-16T04:25:52.161Z,101360.95
2018-07-16T04:30:54.304Z,101363.27
2018-07-16T04:35:56.469Z,101365.64
2018-07-16T04:40:58.664Z,101365.55
2018-07-16T04:46:00.799Z,101371.09
2018-07-16T04:51:02.955Z,101372.69
2018-07-16T04:56:05.288Z,101367.35
2018-07-16T05:01:08.076Z,101370.11
2018-07-16T05:06:10.209Z,101369.16
2018-07-16T05:11:12.394Z,101371.18
2018-07-16T05:16:14.553Z,101360.85
2018-07-16T05:21:16.707Z,101365.80
2018-07-16T05:26:18.911Z,101364.92
2018-07-16T05:31:21.063Z,101360.45
2018-07-16T05:36:23.424Z,101356.65
2018-07-16T05:41:25.643Z,101361.58
2018-07-16T05:46:27.814Z,101355.87
2018-07-16T05:51:30.018Z,101357.75
2018-07-16T05:56:32.266Z,101356.66
2018-07-16T06:01:34.433Z,101359.34
2018-07-16T06:06:36.609Z,101352.98
2018-07-16T06:11:38.819Z,101363.78
2018-07-16T06:16:41.036Z,101352.27
2018-07-16T06:21:43.153Z,101353.95
2018-07-16T06:26:45.281Z,101351.02
2018-07-16T06:31:47.496Z,101348.09
2018-07-16T06:36:49.680Z,101340.88
2018-07-16T06:41:51.886Z,101347.73
2018-07-16T06:46:54.070Z,101345.62
2018-07-16T06:51:56.261Z,101339.66
2018-07-16T06:56:58.429Z,101337.08
2018-07-16T07:02:00.606Z,101328.09
2018-07-16T07:07:02.761Z,101326.41
2018-07-16T07:12:04.926Z,101325.13
2018-07-16T07:17:07.088Z,101325.13
2018-07-16T07:22:09.271Z,101321.23
2018-07-16T07:27:11.495Z,101311.78
2018-07-16T07:32:13.641Z,101309.16
2018-07-16T07:37:15.839Z,101315.18
2018-07-16T07:42:18.094Z,101308.72
2018-07-16T07:47:20.257Z,101307.31
2018-07-16T07:52:22.488Z,101305.55
2018-07-16T07:57:25.580Z,101300.34
2018-07-16T08:02:27.736Z,101300.78
2018-07-16T08:07:29.881Z,101306.72
2018-07-16T08:12:32.038Z,101300.65
2018-07-16T08:17:34.224Z,101300.53
2018-07-16T08:22:36.416Z,101302.64
2018-07-16T08:27:38.633Z,101297.11
2018-07-16T08:32:40.814Z,101296.17
2018-07-16T08:37:42.975Z,101295.59
2018-07-16T08:42:45.197Z,101292.08
2018-07-16T08:47:47.362Z,101291.16
2018-07-16T08:52:49.647Z,101287.27
2018-07-16T08:57:52.262Z,101284.09
2018-07-16T09:02:54.412Z,101278.47
2018-07-16T09:07:56.589Z,101285.36
2018-07-16T09:12:58.728Z,101288.34
2018-07-16T09:18:00.867Z,101285.60
2018-07-16T09:23:03.045Z,101287.35
2018-07-16T09:28:05.187Z,101286.20
2018-07-16T09:33:07.361Z,101287.87
2018-07-16T09:38:09.604Z,101291.67
2018-07-16T09:48:21.009Z,101287.75
2018-07-16T09:53:23.183Z,101285.64
2018-07-16T09:58:25.304Z,101291.43
2018-07-16T10:03:27.431Z,101290.67
2018-07-16T10:08:29.599Z,101287.64
2018-07-16T10:13:31.747Z,101288.88
2018-07-16T10:18:33.872Z,101277.76
2018-07-16T10:23:36.003Z,101279.66
2018-07-16T10:28:38.129Z,101275.34
2018-07-16T10:33:40.317Z,101276.16
2018-07-16T10:38:42.461Z,101264.37
2018-07-16T10:43:44.849Z,101271.08
2018-07-16T10:48:47.212Z,101275.98
2018-07-16T10:53:49.423Z,101277.62
2018-07-16T10:58:51.806Z,101275.32
2018-07-16T11:03:54.000Z,101278.11
2018-07-16T11:08:56.199Z,101273.87
2018-07-16T11:13:58.339Z,101276.81
2018-07-16T11:19:00.475Z,101277.98
2018-07-16T11:24:02.627Z,101270.57
2018-07-16T11:29:04.951Z,101266.22
2018-07-16T11:34:07.104Z,101262.74
2018-07-16T11:39:09.279Z,101258.94
2018-07-16T11:44:11.488Z,101262.00
2018-07-16T11:49:13.650Z,101261.96
2018-07-16T11:54:15.823Z,101264.95
2018-07-16T11:59:18.034Z,101255.28
2018-07-16T12:04:20.129Z,101254.73
2018-07-16T12:09:22.311Z,101247.86
2018-07-16T12:14:24.463Z,101235.37
2018-07-16T12:19:26.606Z,101243.50
2018-07-16T12:24:29.071Z,101236.38
2018-07-16T12:29:31.173Z,101228.98
2018-07-16T12:34:33.369Z,101224.80
2018-07-16T12:39:36.687Z,101214.02
2018-07-16T12:44:40.270Z,101216.44
2018-07-16T12:49:50.752Z,101208.27
2018-07-16T12:54:54.275Z,101209.00
2018-07-16T12:59:58.087Z,101209.73
2018-07-16T13:05:08.429Z,101203.99
2018-07-16T13:10:11.776Z,101200.94
2018-07-16T13:15:14.027Z,101196.25
2018-07-16T13:20:16.186Z,101184.59
2018-07-16T13:25:18.362Z,101183.95
2018-07-16T13:30:20.515Z,101179.04
2018-07-16T13:35:22.752Z,101171.39
2018-07-16T13:40:24.914Z,101163.27
2018-07-16T13:45:27.087Z,101159.05
2018-07-16T13:50:29.293Z,101146.03
2018-07-16T13:55:31.448Z,101145.86
2018-07-16T14:00:33.622Z,101137.71
2018-07-16T14:05:35.766Z,101142.83
2018-07-16T14:10:38.084Z,101130.42
2018-07-16T14:15:40.249Z,101130.35
2018-07-16T14:20:42.391Z,101127.42
2018-07-16T14:25:44.552Z,101128.91
2018-07-16T14:30:46.709Z,101119.77
2018-07-16T14:35:48.871Z,101114.30
2018-07-16T14:40:51.084Z,101112.75
2018-07-16T14:45:53.294Z,101108.96
2018-07-16T14:50:55.481Z,101109.08
2018-07-16T14:55:57.663Z,101101.72
2018-07-16T15:00:59.799Z,101093.26
2018-07-16T15:06:01.936Z,101096.20
2018-07-16T15:11:04.089Z,101095.88
2018-07-16T15:16:06.251Z,101101.09
2018-07-16T15:21:08.664Z,101091.63
2018-07-16T15:26:10.622Z,101088.23
2018-07-16T15:31:12.804Z,101089.28
2018-07-16T15:36:14.916Z,101080.22
2018-07-16T15:41:17.138Z,101078.32
2018-07-16T15:46:19.379Z,101080.44
2018-07-16T15:51:21.513Z,101075.27
2018-07-16T15:56:23.700Z,101066.20
2018-07-16T16:01:25.828Z,101066.64
2018-07-16T16:06:28.035Z,101065.50
2018-07-16T16:11:30.204Z,101062.32
2018-07-16T16:16:32.391Z,101049.51
2018-07-16T16:21:34.544Z,101044.34
2018-07-16T16:26:36.752Z,101044.81
2018-07-16T16:31:38.945Z,101041.91
2018-07-16T16:36:41.186Z,101032.59
2018-07-16T16:41:43.318Z,101042.00
2018-07-16T16:46:45.545Z,101038.05
2018-07-16T16:51:47.769Z,101030.00
2018-07-16T16:56:49.976Z,101023.76
2018-07-16T17:01:52.138Z,101015.98
2018-07-16T17:06:54.324Z,101018.05
2018-07-16T17:11:56.654Z,101022.89
2018-07-16T17:16:58.757Z,101018.88
2018-07-16T17:22:00.934Z,101016.52
2018-07-16T17:27:03.314Z,101022.03
2018-07-16T17:32:05.509Z,101024.41
2018-07-16T17:37:07.738Z,101020.95
2018-07-16T17:42:09.930Z,101023.00
2018-07-16T17:47:12.167Z,101016.95
2018-07-16T17:52:14.374Z,101019.17
2018-07-16T17:57:16.568Z,101027.16
2018-07-16T18:02:18.780Z,101031.42
2018-07-16T18:07:21.735Z,101034.88
2018-07-16T18:12:23.988Z,101032.72
2018-07-16T18:17:26.235Z,101038.05
2018-07-16T18:22:28.488Z,101034.45
2018-07-16T18:27:30.691Z,101034.28
2018-07-16T18:32:32.931Z,101040.05
2018-07-16T18:37:35.146Z,101046.86
2018-07-16T18:42:37.383Z,101045.99
2018-07-16T18:47:39.659Z,101050.57
2018-07-16T18:52:41.902Z,101052.59
2018-07-16T18:57:44.166Z,101056.04
2018-07-16T19:02:46.413Z,101058.52
2018-07-16T19:07:48.612Z,101064.36
2018-07-16T19:12:50.793Z,101064.58
2018-07-16T19:17:53.981Z,101058.97
2018-07-16T19:22:56.248Z,101059.60
2018-07-16T19:27:58.476Z,101064.39
2018-07-16T19:33:00.748Z,101069.33
2018-07-16T19:38:03.082Z,101068.50
2018-07-16T19:43:05.333Z,101068.27
2018-07-16T19:48:07.660Z,101073.19
2018-07-16T19:53:09.916Z,101066.20
2018-07-16T19:58:12.209Z,101071.17
2018-07-16T20:03:14.366Z,101076.41
2018-07-16T20:08:16.607Z,101069.32
2018-07-16T20:13:18.930Z,101077.66
2018-07-16T20:18:21.127Z,101068.73
2018-07-16T20:23:23.363Z,101065.02
2018-07-16T20:28:25.859Z,101065.67
2018-07-16T20:33:28.096Z,101062.09
2018-07-16T20:38:30.292Z,101068.48
2018-07-16T20:43:32.522Z,101068.09
2018-07-16T20:48:34.766Z,101069.91
2018-07-16T20:53:37.015Z,101072.55
2018-07-16T20:58:39.321Z,101066.62
2018-07-16T21:03:41.518Z,101066.68
2018-07-16T21:08:43.728Z,101067.34
2018-07-16T21:13:45.909Z,101071.33
2018-07-16T21:18:48.097Z,101070.68
2018-07-16T21:23:50.262Z,101079.98
2018-07-16T21:28:52.593Z,101083.98
2018-07-16T21:33:54.802Z,101078.92
2018-07-16T21:38:57.003Z,101081.55
2018-07-16T21:43:59.200Z,101085.96
2018-07-16T21:49:01.478Z,101083.46
2018-07-16T21:54:03.912Z,101086.52
2018-07-16T21:59:06.146Z,101083.56
2018-07-16T22:04:08.564Z,101086.98
2018-07-16T22:09:10.760Z,101087.06
2018-07-16T22:14:12.968Z,101089.72
2018-07-16T22:19:15.169Z,101081.20
2018-07-16T22:24:17.341Z,101076.91
2018-07-16T22:29:19.583Z,101080.36
2018-07-16T22:34:21.943Z,101085.13
2018-07-16T22:39:24.132Z,101085.19
2018-07-16T22:44:26.292Z,101081.33
2018-07-16T22:49:28.504Z,101078.33
2018-07-16T22:54:30.650Z,101073.66
2018-07-16T22:59:32.858Z,101074.10
2018-07-16T23:04:35.025Z,101065.09
2018-07-16T23:09:37.495Z,101067.27
2018-07-16T23:14:39.667Z,101072.83
2018-07-16T23:19:41.860Z,101071.11
2018-07-16T23:24:44.445Z,101071.97
2018-07-16T23:29:46.623Z,101064.66
2018-07-16T23:34:48.766Z,101060.84
2018-07-16T23:39:50.919Z,101062.09
2018-07-16T23:44:53.091Z,101063.83
2018-07-16T23:49:55.260Z,101066.80
2018-07-16T23:54:57.552Z,101065.11
2018-07-16T23:59:59.932Z,101064.23
